sensor_id;sensor_type;location;lat;lon;timestamp;temperature;humidity
46898;DHT22;32646;50.958;6.258;2022-12-13T00:00:56;-5.80;99.90
46898;DHT22;32646;50.958;6.258;2022-12-13T00:03:22;-5.80;99.90
46898;DHT22;32646;50.958;6.258;2022-12-13T00:05:49;-5.90;99.90
46898;DHT22;32646;50.958;6.258;2022-12-13T00:08:15;-5.90;99.90
46898;DHT22;32646;50.958;6.258;2022-12-13T00:10:42;-5.90;99.90
46898;DHT22;32646;50.958;6.258;2022-12-13T00:13:09;-6.00;99.90
46898;DHT22;32646;50.958;6.258;2022-12-13T00:15:35;-6.00;99.90
46898;DHT22;32646;50.958;6.258;2022-12-13T00:18:02;-6.00;99.90
46898;DHT22;32646;50.958;6.258;2022-12-13T00:20:28;-6.10;99.90
46898;DHT22;32646;50.958;6.258;2022-12-13T00:22:55;-6.00;99.90
46898;DHT22;32646;50.958;6.258;2022-12-13T00:25:21;-6.10;99.90
46898;DHT22;32646;50.958;6.258;2022-12-13T00:27:48;-6.00;99.90
46898;DHT22;32646;50.958;6.258;2022-12-13T00:30:14;-6.00;99.90
46898;DHT22;32646;50.958;6.258;2022-12-13T00:32:41;-6.00;99.90
46898;DHT22;32646;50.958;6.258;2022-12-13T00:35:07;-6.00;99.90
46898;DHT22;32646;50.958;6.258;2022-12-13T00:37:34;-6.00;99.90
46898;DHT22;32646;50.958;6.258;2022-12-13T00:40:01;-6.00;99.90
46898;DHT22;32646;50.958;6.258;2022-12-13T00:42:27;-6.00;99.90
46898;DHT22;32646;50.958;6.258;2022-12-13T00:44:54;-6.10;99.90
46898;DHT22;32646;50.958;6.258;2022-12-13T00:47:20;-6.10;99.90
46898;DHT22;32646;50.958;6.258;2022-12-13T00:49:47;-6.10;99.90
46898;DHT22;32646;50.958;6.258;2022-12-13T00:52:13;-6.10;99.90
46898;DHT22;32646;50.958;6.258;2022-12-13T00:54:40;-6.00;99.90
46898;DHT22;32646;50.958;6.258;2022-12-13T00:57:06;-6.10;99.90
46898;DHT22;32646;50.958;6.258;2022-12-13T00:59:33;-6.10;99.90
46898;DHT22;32646;50.958;6.258;2022-12-13T01:01:59;-6.20;99.90
46898;DHT22;32646;50.958;6.258;2022-12-13T01:04:26;-6.20;99.90
46898;DHT22;32646;50.958;6.258;2022-12-13T01:06:52;-6.20;99.90
46898;DHT22;32646;50.958;6.258;2022-12-13T01:09:22;-6.30;99.90
46898;DHT22;32646;50.958;6.258;2022-12-13T01:11:49;-6.30;99.90
46898;DHT22;32646;50.958;6.258;2022-12-13T01:14:17;-6.30;99.90
46898;DHT22;32646;50.958;6.258;2022-12-13T01:16:44;-6.40;99.90
46898;DHT22;32646;50.958;6.258;2022-12-13T01:19:10;-6.40;99.90
46898;DHT22;32646;50.958;6.258;2022-12-13T01:21:37;-6.40;99.90
46898;DHT22;32646;50.958;6.258;2022-12-13T01:24:04;-6.30;99.90
46898;DHT22;32646;50.958;6.258;2022-12-13T01:26:32;-6.30;99.90
46898;DHT22;32646;50.958;6.258;2022-12-13T01:28:59;-6.30;99.90
46898;DHT22;32646;50.958;6.258;2022-12-13T01:31:26;-6.30;99.90
46898;DHT22;32646;50.958;6.258;2022-12-13T01:33:52;-6.30;99.90
46898;DHT22;32646;50.958;6.258;2022-12-13T01:36:20;-6.30;99.90
46898;DHT22;32646;50.958;6.258;2022-12-13T01:38:54;-6.40;99.90
46898;DHT22;32646;50.958;6.258;2022-12-13T01:41:26;-6.40;99.90
46898;DHT22;32646;50.958;6.258;2022-12-13T01:43:58;-6.40;99.90
46898;DHT22;32646;50.958;6.258;2022-12-13T01:46:24;-6.40;99.90
46898;DHT22;32646;50.958;6.258;2022-12-13T01:49:11;-6.40;99.90
46898;DHT22;32646;50.958;6.258;2022-12-13T01:51:49;-6.40;99.90
46898;DHT22;32646;50.958;6.258;2022-12-13T01:54:23;-6.40;99.90
46898;DHT22;32646;50.958;6.258;2022-12-13T01:56:59;-6.30;99.90
46898;DHT22;32646;50.958;6.258;2022-12-13T01:59:27;-6.30;99.90
46898;DHT22;32646;50.958;6.258;2022-12-13T02:01:54;-6.20;99.90
46898;DHT22;32646;50.958;6.258;2022-12-13T02:04:34;-6.10;99.90
46898;DHT22;32646;50.958;6.258;2022-12-13T02:07:13;-6.10;99.90
46898;DHT22;32646;50.958;6.258;2022-12-13T02:09:51;-6.00;99.90
46898;DHT22;32646;50.958;6.258;2022-12-13T02:12:25;-6.00;99.90
46898;DHT22;32646;50.958;6.258;2022-12-13T02:14:58;-6.00;99.90
46898;DHT22;32646;50.958;6.258;2022-12-13T02:23:36;-5.80;99.90
46898;DHT22;32646;50.958;6.258;2022-12-13T02:27:06;-5.90;99.90
46898;DHT22;32646;50.958;6.258;2022-12-13T02:37:49;-5.90;99.90
46898;DHT22;32646;50.958;6.258;2022-12-13T02:40:22;-5.90;99.90
46898;DHT22;32646;50.958;6.258;2022-12-13T02:43:02;-5.80;99.90
46898;DHT22;32646;50.958;6.258;2022-12-13T02:45:38;-5.80;99.90
46898;DHT22;32646;50.958;6.258;2022-12-13T02:48:08;-5.80;99.90
46898;DHT22;32646;50.958;6.258;2022-12-13T02:50:37;-5.90;99.90
46898;DHT22;32646;50.958;6.258;2022-12-13T02:53:05;-5.90;99.90
46898;DHT22;32646;50.958;6.258;2022-12-13T02:55:33;-5.90;99.90
46898;DHT22;32646;50.958;6.258;2022-12-13T02:58:02;-6.00;99.90
46898;DHT22;32646;50.958;6.258;2022-12-13T03:09:24;-6.10;99.90
46898;DHT22;32646;50.958;6.258;2022-12-13T03:12:03;-6.10;99.90
46898;DHT22;32646;50.958;6.258;2022-12-13T03:14:33;-6.20;99.90
46898;DHT22;32646;50.958;6.258;2022-12-13T03:17:01;-6.20;99.90
46898;DHT22;32646;50.958;6.258;2022-12-13T03:19:30;-6.30;99.90
46898;DHT22;32646;50.958;6.258;2022-12-13T03:21:57;-6.30;99.90
46898;DHT22;32646;50.958;6.258;2022-12-13T03:24:23;-6.30;99.90
46898;DHT22;32646;50.958;6.258;2022-12-13T03:26:50;-6.30;99.90
46898;DHT22;32646;50.958;6.258;2022-12-13T03:29:17;-6.30;99.90
46898;DHT22;32646;50.958;6.258;2022-12-13T03:31:50;-6.40;99.90
46898;DHT22;32646;50.958;6.258;2022-12-13T03:34:16;-6.40;99.90
46898;DHT22;32646;50.958;6.258;2022-12-13T03:36:49;-6.40;99.90
46898;DHT22;32646;50.958;6.258;2022-12-13T03:39:15;-6.40;99.90
46898;DHT22;32646;50.958;6.258;2022-12-13T03:41:42;-6.40;99.90
46898;DHT22;32646;50.958;6.258;2022-12-13T03:44:08;-6.40;99.90
46898;DHT22;32646;50.958;6.258;2022-12-13T03:46:35;-6.50;99.90
46898;DHT22;32646;50.958;6.258;2022-12-13T03:49:02;-6.40;99.90
46898;DHT22;32646;50.958;6.258;2022-12-13T03:51:28;-6.40;99.90
46898;DHT22;32646;50.958;6.258;2022-12-13T03:53:55;-6.40;99.90
46898;DHT22;32646;50.958;6.258;2022-12-13T03:56:21;-6.50;99.90
46898;DHT22;32646;50.958;6.258;2022-12-13T03:58:48;-6.60;99.90
46898;DHT22;32646;50.958;6.258;2022-12-13T04:01:16;-6.50;99.90
46898;DHT22;32646;50.958;6.258;2022-12-13T04:03:45;-6.50;99.90
46898;DHT22;32646;50.958;6.258;2022-12-13T04:06:12;-6.50;99.90
46898;DHT22;32646;50.958;6.258;2022-12-13T04:08:50;-6.50;99.90
46898;DHT22;32646;50.958;6.258;2022-12-13T04:11:17;-6.40;99.90
46898;DHT22;32646;50.958;6.258;2022-12-13T04:13:44;-6.40;99.90
46898;DHT22;32646;50.958;6.258;2022-12-13T04:16:10;-6.30;99.90
46898;DHT22;32646;50.958;6.258;2022-12-13T04:18:37;-6.20;99.90
46898;DHT22;32646;50.958;6.258;2022-12-13T04:21:04;-6.20;99.90
46898;DHT22;32646;50.958;6.258;2022-12-13T04:23:30;-6.20;99.90
46898;DHT22;32646;50.958;6.258;2022-12-13T04:25:58;-6.20;99.90
46898;DHT22;32646;50.958;6.258;2022-12-13T04:28:25;-6.20;99.90
46898;DHT22;32646;50.958;6.258;2022-12-13T04:30:52;-6.10;99.90
46898;DHT22;32646;50.958;6.258;2022-12-13T04:33:23;-6.00;99.90
46898;DHT22;32646;50.958;6.258;2022-12-13T04:35:49;-6.00;99.90
46898;DHT22;32646;50.958;6.258;2022-12-13T04:38:17;-5.90;99.90
46898;DHT22;32646;50.958;6.258;2022-12-13T04:40:43;-5.80;99.90
46898;DHT22;32646;50.958;6.258;2022-12-13T04:43:10;-5.60;99.90
46898;DHT22;32646;50.958;6.258;2022-12-13T04:45:36;-5.50;99.90
46898;DHT22;32646;50.958;6.258;2022-12-13T04:48:04;-5.50;99.90
46898;DHT22;32646;50.958;6.258;2022-12-13T04:50:30;-5.40;99.90
46898;DHT22;32646;50.958;6.258;2022-12-13T04:52:57;-5.30;99.90
46898;DHT22;32646;50.958;6.258;2022-12-13T04:55:23;-5.30;99.90
46898;DHT22;32646;50.958;6.258;2022-12-13T04:57:50;-5.30;99.90
46898;DHT22;32646;50.958;6.258;2022-12-13T05:00:16;-5.20;99.90
46898;DHT22;32646;50.958;6.258;2022-12-13T05:02:43;-5.10;99.90
46898;DHT22;32646;50.958;6.258;2022-12-13T05:05:10;-4.90;99.90
46898;DHT22;32646;50.958;6.258;2022-12-13T05:07:37;-4.70;99.90
46898;DHT22;32646;50.958;6.258;2022-12-13T05:10:11;-4.60;99.90
46898;DHT22;32646;50.958;6.258;2022-12-13T05:12:58;-4.60;99.90
46898;DHT22;32646;50.958;6.258;2022-12-13T05:15:26;-4.60;99.90
46898;DHT22;32646;50.958;6.258;2022-12-13T05:17:53;-4.50;99.90
46898;DHT22;32646;50.958;6.258;2022-12-13T05:20:19;-4.50;99.90
46898;DHT22;32646;50.958;6.258;2022-12-13T05:22:46;-4.50;99.90
46898;DHT22;32646;50.958;6.258;2022-12-13T05:25:12;-4.50;99.90
46898;DHT22;32646;50.958;6.258;2022-12-13T05:27:39;-4.40;99.90
46898;DHT22;32646;50.958;6.258;2022-12-13T05:30:06;-4.40;99.90
46898;DHT22;32646;50.958;6.258;2022-12-13T05:32:34;-4.40;99.90
46898;DHT22;32646;50.958;6.258;2022-12-13T05:35:16;-4.40;99.90
46898;DHT22;32646;50.958;6.258;2022-12-13T05:37:49;-4.40;99.90
46898;DHT22;32646;50.958;6.258;2022-12-13T05:40:20;-4.40;99.90
46898;DHT22;32646;50.958;6.258;2022-12-13T05:42:47;-4.40;99.90
46898;DHT22;32646;50.958;6.258;2022-12-13T05:45:15;-4.40;99.90
46898;DHT22;32646;50.958;6.258;2022-12-13T05:47:43;-4.40;99.90
46898;DHT22;32646;50.958;6.258;2022-12-13T05:50:10;-4.40;99.90
46898;DHT22;32646;50.958;6.258;2022-12-13T05:52:37;-4.40;99.90
46898;DHT22;32646;50.958;6.258;2022-12-13T05:55:04;-4.40;99.90
46898;DHT22;32646;50.958;6.258;2022-12-13T05:57:31;-4.40;99.90
46898;DHT22;32646;50.958;6.258;2022-12-13T05:59:59;-4.40;99.90
46898;DHT22;32646;50.958;6.258;2022-12-13T06:02:26;-4.40;99.90
46898;DHT22;32646;50.958;6.258;2022-12-13T06:04:53;-4.40;99.90
46898;DHT22;32646;50.958;6.258;2022-12-13T06:07:19;-4.40;99.90
46898;DHT22;32646;50.958;6.258;2022-12-13T06:09:46;-4.40;99.90
46898;DHT22;32646;50.958;6.258;2022-12-13T06:12:12;-4.40;99.90
46898;DHT22;32646;50.958;6.258;2022-12-13T06:14:58;-4.40;99.90
46898;DHT22;32646;50.958;6.258;2022-12-13T06:17:35;-4.40;99.90
46898;DHT22;32646;50.958;6.258;2022-12-13T06:20:03;-4.30;99.90
46898;DHT22;32646;50.958;6.258;2022-12-13T06:22:50;-4.30;99.90
46898;DHT22;32646;50.958;6.258;2022-12-13T06:25:16;-4.30;99.90
46898;DHT22;32646;50.958;6.258;2022-12-13T06:27:57;-4.30;99.90
46898;DHT22;32646;50.958;6.258;2022-12-13T06:30:27;-4.30;99.90
46898;DHT22;32646;50.958;6.258;2022-12-13T06:32:54;-4.30;99.90
46898;DHT22;32646;50.958;6.258;2022-12-13T06:35:22;-4.30;99.90
46898;DHT22;32646;50.958;6.258;2022-12-13T06:37:54;-4.20;99.90
46898;DHT22;32646;50.958;6.258;2022-12-13T06:40:30;-4.20;99.90
46898;DHT22;32646;50.958;6.258;2022-12-13T06:42:57;-4.20;99.90
46898;DHT22;32646;50.958;6.258;2022-12-13T06:45:24;-4.20;99.90
46898;DHT22;32646;50.958;6.258;2022-12-13T06:47:51;-4.10;99.90
46898;DHT22;32646;50.958;6.258;2022-12-13T06:50:17;-4.10;99.90
46898;DHT22;32646;50.958;6.258;2022-12-13T06:52:47;-4.10;99.90
46898;DHT22;32646;50.958;6.258;2022-12-13T06:55:14;-4.20;99.90
46898;DHT22;32646;50.958;6.258;2022-12-13T06:57:49;-4.20;99.90
46898;DHT22;32646;50.958;6.258;2022-12-13T07:00:16;-4.10;99.90
46898;DHT22;32646;50.958;6.258;2022-12-13T07:02:52;-4.10;99.90
46898;DHT22;32646;50.958;6.258;2022-12-13T07:05:20;-4.10;99.90
46898;DHT22;32646;50.958;6.258;2022-12-13T07:07:47;-4.10;99.90
46898;DHT22;32646;50.958;6.258;2022-12-13T07:10:13;-4.10;99.90
46898;DHT22;32646;50.958;6.258;2022-12-13T07:12:48;-4.10;99.90
46898;DHT22;32646;50.958;6.258;2022-12-13T07:15:15;-4.10;99.90
46898;DHT22;32646;50.958;6.258;2022-12-13T07:17:42;-4.10;99.90
46898;DHT22;32646;50.958;6.258;2022-12-13T07:20:09;-4.10;99.90
46898;DHT22;32646;50.958;6.258;2022-12-13T07:22:37;-4.10;99.90
46898;DHT22;32646;50.958;6.258;2022-12-13T07:25:12;-4.10;99.90
46898;DHT22;32646;50.958;6.258;2022-12-13T07:28:05;-4.20;99.90
46898;DHT22;32646;50.958;6.258;2022-12-13T07:30:34;-4.20;99.90
46898;DHT22;32646;50.958;6.258;2022-12-13T07:33:07;-4.20;99.90
46898;DHT22;32646;50.958;6.258;2022-12-13T07:35:34;-4.30;99.90
46898;DHT22;32646;50.958;6.258;2022-12-13T07:38:03;-4.40;99.90
46898;DHT22;32646;50.958;6.258;2022-12-13T07:40:35;-4.40;99.90
46898;DHT22;32646;50.958;6.258;2022-12-13T07:43:03;-4.50;99.90
46898;DHT22;32646;50.958;6.258;2022-12-13T07:45:29;-4.50;99.90
46898;DHT22;32646;50.958;6.258;2022-12-13T07:47:56;-4.50;99.90
46898;DHT22;32646;50.958;6.258;2022-12-13T07:50:22;-4.50;99.90
46898;DHT22;32646;50.958;6.258;2022-12-13T07:52:51;-4.50;99.90
46898;DHT22;32646;50.958;6.258;2022-12-13T07:55:18;-4.40;99.90
46898;DHT22;32646;50.958;6.258;2022-12-13T07:57:48;-4.40;99.90
46898;DHT22;32646;50.958;6.258;2022-12-13T08:00:15;-4.40;99.90
46898;DHT22;32646;50.958;6.258;2022-12-13T08:02:43;-4.40;99.90
46898;DHT22;32646;50.958;6.258;2022-12-13T08:05:10;-4.40;99.90
46898;DHT22;32646;50.958;6.258;2022-12-13T08:07:52;-4.40;99.90
46898;DHT22;32646;50.958;6.258;2022-12-13T08:10:19;-4.30;99.90
46898;DHT22;32646;50.958;6.258;2022-12-13T08:12:46;-4.30;99.90
46898;DHT22;32646;50.958;6.258;2022-12-13T08:15:12;-4.30;99.90
46898;DHT22;32646;50.958;6.258;2022-12-13T08:17:39;-4.30;99.90
46898;DHT22;32646;50.958;6.258;2022-12-13T08:20:07;-4.10;99.90
46898;DHT22;32646;50.958;6.258;2022-12-13T08:22:33;-4.00;99.90
46898;DHT22;32646;50.958;6.258;2022-12-13T08:25:02;-4.00;99.90
46898;DHT22;32646;50.958;6.258;2022-12-13T08:27:29;-3.90;99.90
46898;DHT22;32646;50.958;6.258;2022-12-13T08:29:56;-3.80;99.90
46898;DHT22;32646;50.958;6.258;2022-12-13T08:32:23;-3.80;99.90
46898;DHT22;32646;50.958;6.258;2022-12-13T08:34:49;-3.80;99.90
46898;DHT22;32646;50.958;6.258;2022-12-13T08:37:16;-3.70;99.90
46898;DHT22;32646;50.958;6.258;2022-12-13T08:39:42;-3.80;99.90
46898;DHT22;32646;50.958;6.258;2022-12-13T08:42:16;-3.70;99.90
46898;DHT22;32646;50.958;6.258;2022-12-13T08:44:50;-3.70;99.90
46898;DHT22;32646;50.958;6.258;2022-12-13T08:47:22;-3.50;99.90
46898;DHT22;32646;50.958;6.258;2022-12-13T08:49:57;-3.50;99.90
46898;DHT22;32646;50.958;6.258;2022-12-13T08:52:30;-3.30;99.90
46898;DHT22;32646;50.958;6.258;2022-12-13T08:55:12;-3.20;99.90
46898;DHT22;32646;50.958;6.258;2022-12-13T08:57:43;-3.10;99.90
46898;DHT22;32646;50.958;6.258;2022-12-13T09:00:20;-3.00;99.90
46898;DHT22;32646;50.958;6.258;2022-12-13T09:02:47;-2.70;99.90
46898;DHT22;32646;50.958;6.258;2022-12-13T09:05:14;-2.60;99.90
46898;DHT22;32646;50.958;6.258;2022-12-13T09:08:00;-2.50;99.90
46898;DHT22;32646;50.958;6.258;2022-12-13T09:10:27;-2.60;99.90
46898;DHT22;32646;50.958;6.258;2022-12-13T09:13:03;-2.60;99.90
46898;DHT22;32646;50.958;6.258;2022-12-13T09:15:38;-2.50;99.90
46898;DHT22;32646;50.958;6.258;2022-12-13T09:18:11;-2.60;99.90
46898;DHT22;32646;50.958;6.258;2022-12-13T09:20:49;-2.70;99.90
46898;DHT22;32646;50.958;6.258;2022-12-13T09:23:16;-2.50;99.90
46898;DHT22;32646;50.958;6.258;2022-12-13T09:25:57;-2.20;99.90
46898;DHT22;32646;50.958;6.258;2022-12-13T09:28:32;-1.70;99.90
46898;DHT22;32646;50.958;6.258;2022-12-13T09:30:59;-1.50;99.90
46898;DHT22;32646;50.958;6.258;2022-12-13T09:33:25;-1.30;99.90
46898;DHT22;32646;50.958;6.258;2022-12-13T09:35:56;-1.10;99.90
46898;DHT22;32646;50.958;6.258;2022-12-13T09:38:26;-1.00;99.90
46898;DHT22;32646;50.958;6.258;2022-12-13T09:40:53;-1.00;99.90
46898;DHT22;32646;50.958;6.258;2022-12-13T09:43:25;-0.90;99.90
46898;DHT22;32646;50.958;6.258;2022-12-13T09:45:59;-0.80;99.90
46898;DHT22;32646;50.958;6.258;2022-12-13T09:48:29;-0.90;99.90
46898;DHT22;32646;50.958;6.258;2022-12-13T09:51:00;-0.90;99.90
46898;DHT22;32646;50.958;6.258;2022-12-13T09:53:49;-0.70;99.90
46898;DHT22;32646;50.958;6.258;2022-12-13T09:56:18;-0.50;99.90
46898;DHT22;32646;50.958;6.258;2022-12-13T09:58:50;-0.80;99.90
46898;DHT22;32646;50.958;6.258;2022-12-13T10:01:18;-1.00;99.90
46898;DHT22;32646;50.958;6.258;2022-12-13T10:03:52;-0.80;99.90
46898;DHT22;32646;50.958;6.258;2022-12-13T10:06:21;-0.70;99.90
46898;DHT22;32646;50.958;6.258;2022-12-13T10:08:54;-0.50;99.90
46898;DHT22;32646;50.958;6.258;2022-12-13T10:11:24;-0.30;99.90
46898;DHT22;32646;50.958;6.258;2022-12-13T10:14:08;0.10;99.90
46898;DHT22;32646;50.958;6.258;2022-12-13T10:16:45;0.50;99.90
46898;DHT22;32646;50.958;6.258;2022-12-13T10:19:23;0.00;99.90
46898;DHT22;32646;50.958;6.258;2022-12-13T10:21:56;0.00;99.90
46898;DHT22;32646;50.958;6.258;2022-12-13T10:24:46;-0.60;99.90
46898;DHT22;32646;50.958;6.258;2022-12-13T10:27:14;-0.60;99.90
46898;DHT22;32646;50.958;6.258;2022-12-13T10:32:51;-0.70;99.90
46898;DHT22;32646;50.958;6.258;2022-12-13T10:37:55;-0.50;99.90
46898;DHT22;32646;50.958;6.258;2022-12-13T10:43:14;0.00;99.90
46898;DHT22;32646;50.958;6.258;2022-12-13T10:45:42;0.20;99.90
46898;DHT22;32646;50.958;6.258;2022-12-13T10:48:40;0.60;99.90
46898;DHT22;32646;50.958;6.258;2022-12-13T10:51:13;0.90;99.90
46898;DHT22;32646;50.958;6.258;2022-12-13T10:53:57;0.80;99.90
46898;DHT22;32646;50.958;6.258;2022-12-13T10:56:49;0.80;99.90
46898;DHT22;32646;50.958;6.258;2022-12-13T11:01:44;0.80;99.90
46898;DHT22;32646;50.958;6.258;2022-12-13T11:04:33;0.40;99.90
46898;DHT22;32646;50.958;6.258;2022-12-13T11:07:19;0.30;99.90
46898;DHT22;32646;50.958;6.258;2022-12-13T11:09:47;0.10;99.90
46898;DHT22;32646;50.958;6.258;2022-12-13T11:12:27;-0.20;99.90
46898;DHT22;32646;50.958;6.258;2022-12-13T11:15:04;-0.70;99.90
46898;DHT22;32646;50.958;6.258;2022-12-13T11:17:37;-0.80;99.90
46898;DHT22;32646;50.958;6.258;2022-12-13T11:20:30;-0.50;99.90
46898;DHT22;32646;50.958;6.258;2022-12-13T11:23:10;0.20;99.90
46898;DHT22;32646;50.958;6.258;2022-12-13T11:25:42;0.40;99.90
46898;DHT22;32646;50.958;6.258;2022-12-13T11:28:31;0.50;99.90
46898;DHT22;32646;50.958;6.258;2022-12-13T11:39:42;1.00;99.90
46898;DHT22;32646;50.958;6.258;2022-12-13T11:42:52;1.00;99.90
46898;DHT22;32646;50.958;6.258;2022-12-13T11:45:25;0.50;99.90
46898;DHT22;32646;50.958;6.258;2022-12-13T11:48:14;0.60;99.90
46898;DHT22;32646;50.958;6.258;2022-12-13T11:50:45;0.90;99.90
46898;DHT22;32646;50.958;6.258;2022-12-13T11:53:21;1.10;99.90
46898;DHT22;32646;50.958;6.258;2022-12-13T12:01:47;1.00;99.90
46898;DHT22;32646;50.958;6.258;2022-12-13T12:04:31;1.20;99.90
46898;DHT22;32646;50.958;6.258;2022-12-13T12:07:16;1.50;99.90
46898;DHT22;32646;50.958;6.258;2022-12-13T12:12:32;1.70;99.90
46898;DHT22;32646;50.958;6.258;2022-12-13T12:15:16;1.30;99.90
46898;DHT22;32646;50.958;6.258;2022-12-13T12:17:53;0.80;99.90
46898;DHT22;32646;50.958;6.258;2022-12-13T12:20:45;0.50;99.90
46898;DHT22;32646;50.958;6.258;2022-12-13T12:26:16;-0.40;99.90
46898;DHT22;32646;50.958;6.258;2022-12-13T12:35:03;-0.80;99.90
46898;DHT22;32646;50.958;6.258;2022-12-13T12:40:50;-0.80;99.90
46898;DHT22;32646;50.958;6.258;2022-12-13T12:43:41;-0.80;99.90
46898;DHT22;32646;50.958;6.258;2022-12-13T12:46:33;-0.70;99.90
46898;DHT22;32646;50.958;6.258;2022-12-13T12:52:31;-0.70;99.90
46898;DHT22;32646;50.958;6.258;2022-12-13T12:55:29;-0.60;99.90
46898;DHT22;32646;50.958;6.258;2022-12-13T13:01:00;-0.60;99.90
46898;DHT22;32646;50.958;6.258;2022-12-13T13:03:29;-0.60;99.90
46898;DHT22;32646;50.958;6.258;2022-12-13T13:06:11;-0.70;99.90
46898;DHT22;32646;50.958;6.258;2022-12-13T13:11:22;-0.80;99.90
46898;DHT22;32646;50.958;6.258;2022-12-13T13:16:30;-0.80;99.90
46898;DHT22;32646;50.958;6.258;2022-12-13T13:19:02;-0.80;99.90
46898;DHT22;32646;50.958;6.258;2022-12-13T13:21:33;-0.90;99.90
46898;DHT22;32646;50.958;6.258;2022-12-13T13:26:48;-0.80;99.90
46898;DHT22;32646;50.958;6.258;2022-12-13T13:34:48;-0.90;99.90
46898;DHT22;32646;50.958;6.258;2022-12-13T13:39:53;-0.70;99.90
46898;DHT22;32646;50.958;6.258;2022-12-13T13:42:23;-0.70;99.90
46898;DHT22;32646;50.958;6.258;2022-12-13T13:47:35;-0.80;99.90
46898;DHT22;32646;50.958;6.258;2022-12-13T13:50:22;-0.80;99.90
46898;DHT22;32646;50.958;6.258;2022-12-13T13:55:59;-0.90;99.90
46898;DHT22;32646;50.958;6.258;2022-12-13T14:01:50;-0.90;99.90
46898;DHT22;32646;50.958;6.258;2022-12-13T14:04:45;-0.80;99.90
46898;DHT22;32646;50.958;6.258;2022-12-13T14:10:20;-1.00;99.90
46898;DHT22;32646;50.958;6.258;2022-12-13T14:24:31;-1.00;99.90
46898;DHT22;32646;50.958;6.258;2022-12-13T14:27:38;-1.10;99.90
46898;DHT22;32646;50.958;6.258;2022-12-13T14:30:14;-1.10;99.90
46898;DHT22;32646;50.958;6.258;2022-12-13T14:32:53;-1.10;99.90
46898;DHT22;32646;50.958;6.258;2022-12-13T14:40:32;-1.10;99.90
46898;DHT22;32646;50.958;6.258;2022-12-13T14:42:59;-1.10;99.90
46898;DHT22;32646;50.958;6.258;2022-12-13T14:45:32;-1.10;99.90
46898;DHT22;32646;50.958;6.258;2022-12-13T14:48:02;-1.10;99.90
46898;DHT22;32646;50.958;6.258;2022-12-13T14:50:32;-1.10;99.90
46898;DHT22;32646;50.958;6.258;2022-12-13T14:53:00;-1.10;99.90
46898;DHT22;32646;50.958;6.258;2022-12-13T14:55:31;-1.10;99.90
46898;DHT22;32646;50.958;6.258;2022-12-13T14:58:00;-1.20;99.90
46898;DHT22;32646;50.958;6.258;2022-12-13T15:00:30;-1.10;99.90
46898;DHT22;32646;50.958;6.258;2022-12-13T15:02:59;-1.20;99.90
46898;DHT22;32646;50.958;6.258;2022-12-13T15:05:41;-1.20;99.90
46898;DHT22;32646;50.958;6.258;2022-12-13T15:08:17;-1.20;99.90
46898;DHT22;32646;50.958;6.258;2022-12-13T15:10:53;-1.30;99.90
46898;DHT22;32646;50.958;6.258;2022-12-13T15:13:35;-1.30;99.90
46898;DHT22;32646;50.958;6.258;2022-12-13T15:16:22;-1.30;99.90
46898;DHT22;32646;50.958;6.258;2022-12-13T15:19:13;-1.40;99.90
46898;DHT22;32646;50.958;6.258;2022-12-13T15:21:59;-1.50;99.90
46898;DHT22;32646;50.958;6.258;2022-12-13T15:24:31;-1.50;99.90
46898;DHT22;32646;50.958;6.258;2022-12-13T15:26:59;-1.60;99.90
46898;DHT22;32646;50.958;6.258;2022-12-13T15:29:28;-1.60;99.90
46898;DHT22;32646;50.958;6.258;2022-12-13T15:31:55;-1.60;99.90
46898;DHT22;32646;50.958;6.258;2022-12-13T15:37:02;-1.70;99.90
46898;DHT22;32646;50.958;6.258;2022-12-13T15:39:29;-1.70;99.90
46898;DHT22;32646;50.958;6.258;2022-12-13T15:42:00;-1.70;99.90
46898;DHT22;32646;50.958;6.258;2022-12-13T15:44:29;-1.80;99.90
46898;DHT22;32646;50.958;6.258;2022-12-13T15:47:04;-1.80;99.90
46898;DHT22;32646;50.958;6.258;2022-12-13T15:49:35;-1.80;99.90
46898;DHT22;32646;50.958;6.258;2022-12-13T15:52:05;-1.80;99.90
46898;DHT22;32646;50.958;6.258;2022-12-13T15:54:32;-1.80;99.90
46898;DHT22;32646;50.958;6.258;2022-12-13T15:59:34;-1.80;99.90
46898;DHT22;32646;50.958;6.258;2022-12-13T16:02:02;-1.70;99.90
46898;DHT22;32646;50.958;6.258;2022-12-13T16:04:30;-1.80;99.90
46898;DHT22;32646;50.958;6.258;2022-12-13T16:06:58;-1.80;99.90
46898;DHT22;32646;50.958;6.258;2022-12-13T16:09:30;-1.80;99.90
46898;DHT22;32646;50.958;6.258;2022-12-13T16:12:00;-1.90;99.90
46898;DHT22;32646;50.958;6.258;2022-12-13T16:17:01;-1.90;99.90
46898;DHT22;32646;50.958;6.258;2022-12-13T16:19:34;-1.90;99.90
46898;DHT22;32646;50.958;6.258;2022-12-13T16:22:00;-1.90;99.90
46898;DHT22;32646;50.958;6.258;2022-12-13T16:24:33;-1.80;99.90
46898;DHT22;32646;50.958;6.258;2022-12-13T16:27:00;-1.80;99.90
46898;DHT22;32646;50.958;6.258;2022-12-13T16:29:34;-1.80;99.90
46898;DHT22;32646;50.958;6.258;2022-12-13T16:32:01;-1.80;99.90
46898;DHT22;32646;50.958;6.258;2022-12-13T16:34:34;-1.80;99.90
46898;DHT22;32646;50.958;6.258;2022-12-13T16:37:01;-1.90;99.90
46898;DHT22;32646;50.958;6.258;2022-12-13T16:39:27;-1.90;99.90
46898;DHT22;32646;50.958;6.258;2022-12-13T16:41:54;-1.90;99.90
46898;DHT22;32646;50.958;6.258;2022-12-13T16:44:31;-1.90;99.90
46898;DHT22;32646;50.958;6.258;2022-12-13T16:46:58;-1.90;99.90
46898;DHT22;32646;50.958;6.258;2022-12-13T16:49:44;-1.90;99.90
46898;DHT22;32646;50.958;6.258;2022-12-13T16:52:10;-1.90;99.90
46898;DHT22;32646;50.958;6.258;2022-12-13T16:54:37;-1.90;99.90
46898;DHT22;32646;50.958;6.258;2022-12-13T16:57:03;-1.90;99.90
46898;DHT22;32646;50.958;6.258;2022-12-13T16:59:30;-1.90;99.90
46898;DHT22;32646;50.958;6.258;2022-12-13T17:01:56;-1.90;99.90
46898;DHT22;32646;50.958;6.258;2022-12-13T17:04:24;-1.90;99.90
46898;DHT22;32646;50.958;6.258;2022-12-13T17:06:50;-1.90;99.90
46898;DHT22;32646;50.958;6.258;2022-12-13T17:09:22;-1.90;99.90
46898;DHT22;32646;50.958;6.258;2022-12-13T17:11:48;-1.90;99.90
46898;DHT22;32646;50.958;6.258;2022-12-13T17:14:15;-1.90;99.90
46898;DHT22;32646;50.958;6.258;2022-12-13T17:16:42;-1.90;99.90
46898;DHT22;32646;50.958;6.258;2022-12-13T17:19:10;-1.90;99.90
46898;DHT22;32646;50.958;6.258;2022-12-13T17:21:37;-1.90;99.90
46898;DHT22;32646;50.958;6.258;2022-12-13T17:24:03;-1.80;99.90
46898;DHT22;32646;50.958;6.258;2022-12-13T17:26:30;-1.80;99.90
46898;DHT22;32646;50.958;6.258;2022-12-13T17:28:56;-1.80;99.90
46898;DHT22;32646;50.958;6.258;2022-12-13T17:31:23;-1.90;99.90
46898;DHT22;32646;50.958;6.258;2022-12-13T17:33:55;-1.90;99.90
46898;DHT22;32646;50.958;6.258;2022-12-13T17:36:22;-1.90;99.90
46898;DHT22;32646;50.958;6.258;2022-12-13T17:38:48;-1.90;99.90
46898;DHT22;32646;50.958;6.258;2022-12-13T17:41:15;-1.90;99.90
46898;DHT22;32646;50.958;6.258;2022-12-13T17:43:42;-1.90;99.90
46898;DHT22;32646;50.958;6.258;2022-12-13T17:46:12;-2.00;99.90
46898;DHT22;32646;50.958;6.258;2022-12-13T17:48:40;-2.00;99.90
46898;DHT22;32646;50.958;6.258;2022-12-13T17:51:09;-2.00;99.90
46898;DHT22;32646;50.958;6.258;2022-12-13T17:53:38;-2.10;99.90
46898;DHT22;32646;50.958;6.258;2022-12-13T17:56:07;-2.10;99.90
46898;DHT22;32646;50.958;6.258;2022-12-13T17:58:34;-2.00;99.90
46898;DHT22;32646;50.958;6.258;2022-12-13T18:01:21;-2.00;99.90